sensor_id;sensor_type;location;lat;lon;timestamp;temperature;humidity
22185;DHT22;11258;52.516;13.318;2022-07-29T00:01:00;17.60;99.90
22185;DHT22;11258;52.516;13.318;2022-07-29T00:03:26;17.70;99.90
22185;DHT22;11258;52.516;13.318;2022-07-29T00:05:52;17.60;99.90
22185;DHT22;11258;52.516;13.318;2022-07-29T00:08:18;17.60;99.90
22185;DHT22;11258;52.516;13.318;2022-07-29T00:10:44;17.50;99.90
22185;DHT22;11258;52.516;13.318;2022-07-29T00:13:10;17.50;99.90
22185;DHT22;11258;52.516;13.318;2022-07-29T00:15:35;17.50;99.90
22185;DHT22;11258;52.516;13.318;2022-07-29T00:18:01;17.50;99.90
22185;DHT22;11258;52.516;13.318;2022-07-29T00:20:27;17.60;99.90
22185;DHT22;11258;52.516;13.318;2022-07-29T00:22:52;17.50;99.90
22185;DHT22;11258;52.516;13.318;2022-07-29T00:25:18;17.50;99.90
22185;DHT22;11258;52.516;13.318;2022-07-29T00:27:44;17.50;99.90
22185;DHT22;11258;52.516;13.318;2022-07-29T00:30:11;17.40;99.90
22185;DHT22;11258;52.516;13.318;2022-07-29T00:32:37;17.40;99.90
22185;DHT22;11258;52.516;13.318;2022-07-29T00:35:03;17.40;99.90
22185;DHT22;11258;52.516;13.318;2022-07-29T00:37:47;17.50;99.90
22185;DHT22;11258;52.516;13.318;2022-07-29T00:40:13;17.40;99.90
22185;DHT22;11258;52.516;13.318;2022-07-29T00:42:46;17.40;99.90
22185;DHT22;11258;52.516;13.318;2022-07-29T00:45:13;17.30;99.90
22185;DHT22;11258;52.516;13.318;2022-07-29T00:47:39;17.30;99.90
22185;DHT22;11258;52.516;13.318;2022-07-29T00:50:06;17.20;99.90
22185;DHT22;11258;52.516;13.318;2022-07-29T00:52:33;17.10;99.90
22185;DHT22;11258;52.516;13.318;2022-07-29T00:54:59;17.10;99.90
22185;DHT22;11258;52.516;13.318;2022-07-29T00:57:24;17.10;99.90
22185;DHT22;11258;52.516;13.318;2022-07-29T00:59:50;17.10;99.90
22185;DHT22;11258;52.516;13.318;2022-07-29T01:02:16;17.20;99.90
22185;DHT22;11258;52.516;13.318;2022-07-29T01:04:41;17.20;99.90
22185;DHT22;11258;52.516;13.318;2022-07-29T01:07:07;17.10;99.90
22185;DHT22;11258;52.516;13.318;2022-07-29T01:09:34;17.10;99.90
22185;DHT22;11258;52.516;13.318;2022-07-29T01:12:01;17.10;99.90
22185;DHT22;11258;52.516;13.318;2022-07-29T01:14:28;17.10;99.90
22185;DHT22;11258;52.516;13.318;2022-07-29T01:17:05;17.10;99.90
22185;DHT22;11258;52.516;13.318;2022-07-29T01:21:59;17.10;99.90
22185;DHT22;11258;52.516;13.318;2022-07-29T01:24:49;17.10;99.90
22185;DHT22;11258;52.516;13.318;2022-07-29T01:30:05;17.00;99.90
22185;DHT22;11258;52.516;13.318;2022-07-29T01:32:35;17.00;99.90
22185;DHT22;11258;52.516;13.318;2022-07-29T01:39:58;16.90;99.90
22185;DHT22;11258;52.516;13.318;2022-07-29T01:42:36;16.80;99.90
22185;DHT22;11258;52.516;13.318;2022-07-29T01:45:21;16.90;99.90
22185;DHT22;11258;52.516;13.318;2022-07-29T01:48:04;16.90;99.90
22185;DHT22;11258;52.516;13.318;2022-07-29T01:50:34;16.80;99.90
22185;DHT22;11258;52.516;13.318;2022-07-29T01:53:04;16.80;99.90
22185;DHT22;11258;52.516;13.318;2022-07-29T01:55:35;16.70;99.90
22185;DHT22;11258;52.516;13.318;2022-07-29T01:58:03;16.70;99.90
22185;DHT22;11258;52.516;13.318;2022-07-29T02:00:31;16.70;99.90
22185;DHT22;11258;52.516;13.318;2022-07-29T02:02:59;16.60;99.90
22185;DHT22;11258;52.516;13.318;2022-07-29T02:05:27;16.70;99.90
22185;DHT22;11258;52.516;13.318;2022-07-29T02:07:54;16.60;99.90
22185;DHT22;11258;52.516;13.318;2022-07-29T02:10:23;16.60;99.90
22185;DHT22;11258;52.516;13.318;2022-07-29T02:12:49;16.50;99.90
22185;DHT22;11258;52.516;13.318;2022-07-29T02:15:16;16.50;99.90
22185;DHT22;11258;52.516;13.318;2022-07-29T02:17:55;16.50;99.90
22185;DHT22;11258;52.516;13.318;2022-07-29T02:20:23;16.40;99.90
22185;DHT22;11258;52.516;13.318;2022-07-29T02:22:51;16.50;99.90
22185;DHT22;11258;52.516;13.318;2022-07-29T02:25:18;16.50;99.90
22185;DHT22;11258;52.516;13.318;2022-07-29T02:27:44;16.60;99.90
22185;DHT22;11258;52.516;13.318;2022-07-29T02:30:12;16.50;99.90
22185;DHT22;11258;52.516;13.318;2022-07-29T02:32:39;16.50;99.90
22185;DHT22;11258;52.516;13.318;2022-07-29T02:35:08;16.40;99.90
22185;DHT22;11258;52.516;13.318;2022-07-29T02:37:36;16.40;99.90
22185;DHT22;11258;52.516;13.318;2022-07-29T02:40:02;16.50;99.90
22185;DHT22;11258;52.516;13.318;2022-07-29T02:42:29;16.50;99.90
22185;DHT22;11258;52.516;13.318;2022-07-29T02:44:56;16.40;99.90
22185;DHT22;11258;52.516;13.318;2022-07-29T02:47:39;16.40;99.90
22185;DHT22;11258;52.516;13.318;2022-07-29T02:50:16;16.40;99.90
22185;DHT22;11258;52.516;13.318;2022-07-29T02:52:45;16.40;99.90
22185;DHT22;11258;52.516;13.318;2022-07-29T02:57:54;16.40;99.90
22185;DHT22;11258;52.516;13.318;2022-07-29T03:00:27;16.40;99.90
22185;DHT22;11258;52.516;13.318;2022-07-29T03:02:56;16.40;99.90
22185;DHT22;11258;52.516;13.318;2022-07-29T03:05:22;16.40;99.90
22185;DHT22;11258;52.516;13.318;2022-07-29T03:07:58;16.50;99.90
22185;DHT22;11258;52.516;13.318;2022-07-29T03:10:26;16.50;99.90
22185;DHT22;11258;52.516;13.318;2022-07-29T03:12:53;16.50;99.90
22185;DHT22;11258;52.516;13.318;2022-07-29T03:15:19;16.40;99.90
22185;DHT22;11258;52.516;13.318;2022-07-29T03:17:46;16.50;99.90
22185;DHT22;11258;52.516;13.318;2022-07-29T03:20:12;16.50;99.90
22185;DHT22;11258;52.516;13.318;2022-07-29T03:22:42;16.50;99.90
22185;DHT22;11258;52.516;13.318;2022-07-29T03:25:16;16.40;99.90
22185;DHT22;11258;52.516;13.318;2022-07-29T03:27:43;16.40;99.90
22185;DHT22;11258;52.516;13.318;2022-07-29T03:30:10;16.40;99.90
22185;DHT22;11258;52.516;13.318;2022-07-29T03:32:36;16.40;99.90
22185;DHT22;11258;52.516;13.318;2022-07-29T03:35:03;16.30;99.90
22185;DHT22;11258;52.516;13.318;2022-07-29T03:37:29;16.40;99.90
22185;DHT22;11258;52.516;13.318;2022-07-29T03:39:57;16.40;99.90
22185;DHT22;11258;52.516;13.318;2022-07-29T03:42:24;16.30;99.90
22185;DHT22;11258;52.516;13.318;2022-07-29T03:44:52;16.20;99.90
22185;DHT22;11258;52.516;13.318;2022-07-29T03:47:20;16.20;99.90
22185;DHT22;11258;52.516;13.318;2022-07-29T03:49:49;16.30;99.90
22185;DHT22;11258;52.516;13.318;2022-07-29T03:52:16;16.40;99.90
22185;DHT22;11258;52.516;13.318;2022-07-29T03:54:41;16.40;99.90
22185;DHT22;11258;52.516;13.318;2022-07-29T03:57:07;16.40;99.90
22185;DHT22;11258;52.516;13.318;2022-07-29T03:59:35;16.40;99.90
22185;DHT22;11258;52.516;13.318;2022-07-29T04:02:04;16.50;99.90
22185;DHT22;11258;52.516;13.318;2022-07-29T04:04:33;16.60;99.90
22185;DHT22;11258;52.516;13.318;2022-07-29T04:06:59;16.50;99.90
22185;DHT22;11258;52.516;13.318;2022-07-29T04:09:25;16.60;99.90
22185;DHT22;11258;52.516;13.318;2022-07-29T04:11:51;16.60;99.90
22185;DHT22;11258;52.516;13.318;2022-07-29T04:14:16;16.60;99.90
22185;DHT22;11258;52.516;13.318;2022-07-29T04:16:42;16.70;99.90
22185;DHT22;11258;52.516;13.318;2022-07-29T04:19:08;16.70;99.90
22185;DHT22;11258;52.516;13.318;2022-07-29T04:21:40;16.80;99.90
22185;DHT22;11258;52.516;13.318;2022-07-29T04:24:07;16.90;99.90
22185;DHT22;11258;52.516;13.318;2022-07-29T04:26:33;17.20;99.90
22185;DHT22;11258;52.516;13.318;2022-07-29T04:28:58;17.40;99.90
22185;DHT22;11258;52.516;13.318;2022-07-29T04:31:24;18.30;99.90
22185;DHT22;11258;52.516;13.318;2022-07-29T04:33:49;19.10;99.90
22185;DHT22;11258;52.516;13.318;2022-07-29T04:36:15;20.10;99.90
22185;DHT22;11258;52.516;13.318;2022-07-29T04:38:41;19.90;99.90
22185;DHT22;11258;52.516;13.318;2022-07-29T04:41:06;19.30;99.90
22185;DHT22;11258;52.516;13.318;2022-07-29T04:43:34;18.90;99.90
22185;DHT22;11258;52.516;13.318;2022-07-29T04:46:00;18.60;99.90
22185;DHT22;11258;52.516;13.318;2022-07-29T04:48:26;18.30;99.90
22185;DHT22;11258;52.516;13.318;2022-07-29T04:50:51;18.30;99.90
22185;DHT22;11258;52.516;13.318;2022-07-29T04:53:17;18.50;99.90
22185;DHT22;11258;52.516;13.318;2022-07-29T04:55:43;18.40;99.90
22185;DHT22;11258;52.516;13.318;2022-07-29T04:58:10;18.40;99.90
22185;DHT22;11258;52.516;13.318;2022-07-29T05:00:35;18.20;99.90
22185;DHT22;11258;52.516;13.318;2022-07-29T05:03:01;18.30;99.90
22185;DHT22;11258;52.516;13.318;2022-07-29T05:05:27;18.50;99.90
22185;DHT22;11258;52.516;13.318;2022-07-29T05:07:52;18.80;99.90
22185;DHT22;11258;52.516;13.318;2022-07-29T05:10:18;19.00;99.90
22185;DHT22;11258;52.516;13.318;2022-07-29T05:12:43;19.20;99.90
22185;DHT22;11258;52.516;13.318;2022-07-29T05:15:09;19.20;99.90
22185;DHT22;11258;52.516;13.318;2022-07-29T05:17:35;19.40;99.90
22185;DHT22;11258;52.516;13.318;2022-07-29T05:20:00;19.30;99.90
22185;DHT22;11258;52.516;13.318;2022-07-29T05:22:26;19.20;99.90
22185;DHT22;11258;52.516;13.318;2022-07-29T05:24:52;19.00;99.90
22185;DHT22;11258;52.516;13.318;2022-07-29T05:27:17;18.70;99.90
22185;DHT22;11258;52.516;13.318;2022-07-29T05:29:43;18.70;99.90
22185;DHT22;11258;52.516;13.318;2022-07-29T05:32:09;19.00;99.90
22185;DHT22;11258;52.516;13.318;2022-07-29T05:34:35;18.90;99.90
22185;DHT22;11258;52.516;13.318;2022-07-29T05:37:00;18.90;99.90
22185;DHT22;11258;52.516;13.318;2022-07-29T05:39:26;18.70;99.90
22185;DHT22;11258;52.516;13.318;2022-07-29T05:41:52;18.60;99.90
22185;DHT22;11258;52.516;13.318;2022-07-29T05:44:17;18.50;99.90
22185;DHT22;11258;52.516;13.318;2022-07-29T05:46:43;18.40;99.90
22185;DHT22;11258;52.516;13.318;2022-07-29T05:49:08;18.30;99.90
22185;DHT22;11258;52.516;13.318;2022-07-29T05:51:34;18.20;99.90
22185;DHT22;11258;52.516;13.318;2022-07-29T05:54:00;18.20;99.90
22185;DHT22;11258;52.516;13.318;2022-07-29T05:56:25;18.30;99.90
22185;DHT22;11258;52.516;13.318;2022-07-29T05:58:52;18.50;99.90
22185;DHT22;11258;52.516;13.318;2022-07-29T06:01:17;18.90;99.90
22185;DHT22;11258;52.516;13.318;2022-07-29T06:03:43;19.20;99.90
22185;DHT22;11258;52.516;13.318;2022-07-29T06:06:09;19.90;99.90
22185;DHT22;11258;52.516;13.318;2022-07-29T06:08:35;20.00;99.90
22185;DHT22;11258;52.516;13.318;2022-07-29T06:11:01;20.20;99.90
22185;DHT22;11258;52.516;13.318;2022-07-29T06:13:27;20.60;99.90
22185;DHT22;11258;52.516;13.318;2022-07-29T06:15:53;21.20;99.90
22185;DHT22;11258;52.516;13.318;2022-07-29T06:18:19;22.50;99.90
22185;DHT22;11258;52.516;13.318;2022-07-29T06:20:46;22.80;99.90
22185;DHT22;11258;52.516;13.318;2022-07-29T06:23:11;22.90;99.90
22185;DHT22;11258;52.516;13.318;2022-07-29T06:25:39;23.20;99.90
22185;DHT22;11258;52.516;13.318;2022-07-29T06:28:04;23.00;99.90
22185;DHT22;11258;52.516;13.318;2022-07-29T06:30:30;22.40;99.90
22185;DHT22;11258;52.516;13.318;2022-07-29T06:32:55;22.10;99.90
22185;DHT22;11258;52.516;13.318;2022-07-29T06:35:21;21.90;99.90
22185;DHT22;11258;52.516;13.318;2022-07-29T06:37:47;21.60;99.90
22185;DHT22;11258;52.516;13.318;2022-07-29T06:40:12;21.50;99.90
22185;DHT22;11258;52.516;13.318;2022-07-29T06:42:57;21.20;99.90
22185;DHT22;11258;52.516;13.318;2022-07-29T06:45:23;20.70;99.90
22185;DHT22;11258;52.516;13.318;2022-07-29T06:47:49;20.80;99.90
22185;DHT22;11258;52.516;13.318;2022-07-29T06:50:15;20.70;99.90
22185;DHT22;11258;52.516;13.318;2022-07-29T06:52:41;20.90;99.90
22185;DHT22;11258;52.516;13.318;2022-07-29T06:55:07;20.80;99.90
22185;DHT22;11258;52.516;13.318;2022-07-29T06:57:33;21.00;99.90
22185;DHT22;11258;52.516;13.318;2022-07-29T06:59:59;21.20;99.90
22185;DHT22;11258;52.516;13.318;2022-07-29T07:02:25;21.30;99.90
22185;DHT22;11258;52.516;13.318;2022-07-29T07:04:51;21.50;99.90
22185;DHT22;11258;52.516;13.318;2022-07-29T07:07:16;22.00;99.90
22185;DHT22;11258;52.516;13.318;2022-07-29T07:09:42;23.10;99.90
22185;DHT22;11258;52.516;13.318;2022-07-29T07:12:07;24.40;99.90
22185;DHT22;11258;52.516;13.318;2022-07-29T07:14:33;25.70;99.90
22185;DHT22;11258;52.516;13.318;2022-07-29T07:16:59;26.10;99.90
22185;DHT22;11258;52.516;13.318;2022-07-29T07:19:26;26.30;99.90
22185;DHT22;11258;52.516;13.318;2022-07-29T07:21:55;25.70;99.90
22185;DHT22;11258;52.516;13.318;2022-07-29T07:24:20;25.90;99.90
22185;DHT22;11258;52.516;13.318;2022-07-29T07:26:46;25.90;99.90
22185;DHT22;11258;52.516;13.318;2022-07-29T07:29:12;27.10;99.90
22185;DHT22;11258;52.516;13.318;2022-07-29T07:31:38;27.60;99.90
22185;DHT22;11258;52.516;13.318;2022-07-29T07:34:04;28.00;99.90
22185;DHT22;11258;52.516;13.318;2022-07-29T07:36:29;28.70;99.90
22185;DHT22;11258;52.516;13.318;2022-07-29T07:38:55;29.80;99.90
22185;DHT22;11258;52.516;13.318;2022-07-29T07:41:21;30.60;97.70
22185;DHT22;11258;52.516;13.318;2022-07-29T07:43:47;30.00;96.70
22185;DHT22;11258;52.516;13.318;2022-07-29T07:46:13;29.80;97.50
22185;DHT22;11258;52.516;13.318;2022-07-29T07:48:39;29.70;96.80
22185;DHT22;11258;52.516;13.318;2022-07-29T07:51:04;29.20;96.60
22185;DHT22;11258;52.516;13.318;2022-07-29T07:53:30;29.30;96.50
22185;DHT22;11258;52.516;13.318;2022-07-29T07:55:56;28.90;97.40
22185;DHT22;11258;52.516;13.318;2022-07-29T07:58:21;29.70;96.20
22185;DHT22;11258;52.516;13.318;2022-07-29T08:00:47;29.50;94.80
22185;DHT22;11258;52.516;13.318;2022-07-29T08:03:13;30.90;94.30
22185;DHT22;11258;52.516;13.318;2022-07-29T08:05:39;31.00;92.60
22185;DHT22;11258;52.516;13.318;2022-07-29T08:08:05;29.40;93.70
22185;DHT22;11258;52.516;13.318;2022-07-29T08:10:31;28.40;94.30
22185;DHT22;11258;52.516;13.318;2022-07-29T08:13:15;28.50;95.30
22185;DHT22;11258;52.516;13.318;2022-07-29T08:15:41;28.80;94.70
22185;DHT22;11258;52.516;13.318;2022-07-29T08:18:08;30.00;94.20
22185;DHT22;11258;52.516;13.318;2022-07-29T08:20:34;30.20;92.60
22185;DHT22;11258;52.516;13.318;2022-07-29T08:23:01;30.70;91.60
22185;DHT22;11258;52.516;13.318;2022-07-29T08:25:27;29.50;92.10
22185;DHT22;11258;52.516;13.318;2022-07-29T08:27:53;30.00;93.10
22185;DHT22;11258;52.516;13.318;2022-07-29T08:30:18;30.70;91.90
22185;DHT22;11258;52.516;13.318;2022-07-29T08:32:44;30.80;90.50
22185;DHT22;11258;52.516;13.318;2022-07-29T08:35:10;29.60;91.80
22185;DHT22;11258;52.516;13.318;2022-07-29T08:37:35;29.70;91.50
22185;DHT22;11258;52.516;13.318;2022-07-29T08:40:01;30.00;91.30
22185;DHT22;11258;52.516;13.318;2022-07-29T08:42:27;30.20;90.80
22185;DHT22;11258;52.516;13.318;2022-07-29T08:44:53;29.90;90.30
22185;DHT22;11258;52.516;13.318;2022-07-29T08:47:20;30.20;90.20
22185;DHT22;11258;52.516;13.318;2022-07-29T08:49:45;30.60;89.70
22185;DHT22;11258;52.516;13.318;2022-07-29T08:52:14;29.80;90.20
22185;DHT22;11258;52.516;13.318;2022-07-29T08:54:43;29.80;90.80
22185;DHT22;11258;52.516;13.318;2022-07-29T08:57:12;29.30;90.60
22185;DHT22;11258;52.516;13.318;2022-07-29T08:59:40;28.60;91.20
22185;DHT22;11258;52.516;13.318;2022-07-29T09:02:16;28.20;91.80
22185;DHT22;11258;52.516;13.318;2022-07-29T09:04:44;28.50;91.50
22185;DHT22;11258;52.516;13.318;2022-07-29T09:07:14;28.60;91.10
22185;DHT22;11258;52.516;13.318;2022-07-29T09:09:42;28.50;91.30
22185;DHT22;11258;52.516;13.318;2022-07-29T09:12:11;28.60;91.70
22185;DHT22;11258;52.516;13.318;2022-07-29T09:14:40;28.70;91.20
22185;DHT22;11258;52.516;13.318;2022-07-29T09:17:07;29.00;91.30
22185;DHT22;11258;52.516;13.318;2022-07-29T09:19:34;29.40;90.40
22185;DHT22;11258;52.516;13.318;2022-07-29T09:22:05;29.80;90.40
22185;DHT22;11258;52.516;13.318;2022-07-29T09:27:00;29.70;89.50
22185;DHT22;11258;52.516;13.318;2022-07-29T09:29:27;28.50;90.60
22185;DHT22;11258;52.516;13.318;2022-07-29T09:31:54;28.20;90.80
22185;DHT22;11258;52.516;13.318;2022-07-29T09:34:26;28.20;91.10
22185;DHT22;11258;52.516;13.318;2022-07-29T09:36:53;27.80;91.50
22185;DHT22;11258;52.516;13.318;2022-07-29T09:42:00;27.30;92.10
22185;DHT22;11258;52.516;13.318;2022-07-29T09:44:28;27.10;92.20
22185;DHT22;11258;52.516;13.318;2022-07-29T09:47:05;27.00;92.20
22185;DHT22;11258;52.516;13.318;2022-07-29T09:49:35;26.70;92.20
22185;DHT22;11258;52.516;13.318;2022-07-29T09:52:03;26.40;92.50
22185;DHT22;11258;52.516;13.318;2022-07-29T09:54:29;26.10;92.40
22185;DHT22;11258;52.516;13.318;2022-07-29T09:56:59;26.10;92.50
22185;DHT22;11258;52.516;13.318;2022-07-29T09:59:25;26.40;92.10
22185;DHT22;11258;52.516;13.318;2022-07-29T10:01:52;27.00;91.70
22185;DHT22;11258;52.516;13.318;2022-07-29T10:04:18;27.40;91.30
22185;DHT22;11258;52.516;13.318;2022-07-29T10:07:00;27.70;91.40
22185;DHT22;11258;52.516;13.318;2022-07-29T10:09:26;28.30;90.90
22185;DHT22;11258;52.516;13.318;2022-07-29T10:12:10;27.90;90.90
22185;DHT22;11258;52.516;13.318;2022-07-29T10:14:37;27.70;90.80
22185;DHT22;11258;52.516;13.318;2022-07-29T10:17:04;27.30;91.00
22185;DHT22;11258;52.516;13.318;2022-07-29T10:19:31;27.30;91.20
22185;DHT22;11258;52.516;13.318;2022-07-29T10:21:58;27.20;91.30
22185;DHT22;11258;52.516;13.318;2022-07-29T10:24:28;26.80;91.10
22185;DHT22;11258;52.516;13.318;2022-07-29T10:26:55;26.40;91.60
22185;DHT22;11258;52.516;13.318;2022-07-29T10:29:21;26.10;91.20
22185;DHT22;11258;52.516;13.318;2022-07-29T10:32:16;25.70;91.10
22185;DHT22;11258;52.516;13.318;2022-07-29T10:35:18;26.10;91.50
22185;DHT22;11258;52.516;13.318;2022-07-29T10:38:15;26.10;91.40
22185;DHT22;11258;52.516;13.318;2022-07-29T10:44:06;26.50;91.10
22185;DHT22;11258;52.516;13.318;2022-07-29T10:46:40;26.70;90.80
22185;DHT22;11258;52.516;13.318;2022-07-29T10:49:14;26.60;91.20
22185;DHT22;11258;52.516;13.318;2022-07-29T10:52:06;26.70;90.80
22185;DHT22;11258;52.516;13.318;2022-07-29T10:54:36;26.50;91.00
22185;DHT22;11258;52.516;13.318;2022-07-29T10:57:22;26.90;91.10
22185;DHT22;11258;52.516;13.318;2022-07-29T10:59:50;26.90;91.00
22185;DHT22;11258;52.516;13.318;2022-07-29T11:07:29;26.70;90.40
22185;DHT22;11258;52.516;13.318;2022-07-29T11:15:17;26.90;90.80
22185;DHT22;11258;52.516;13.318;2022-07-29T11:20:34;27.40;90.70
22185;DHT22;11258;52.516;13.318;2022-07-29T11:23:00;28.00;90.40
22185;DHT22;11258;52.516;13.318;2022-07-29T11:25:26;28.10;90.00
22185;DHT22;11258;52.516;13.318;2022-07-29T11:27:54;27.60;90.00
22185;DHT22;11258;52.516;13.318;2022-07-29T11:30:59;27.60;90.30
22185;DHT22;11258;52.516;13.318;2022-07-29T11:33:33;28.00;90.10
22185;DHT22;11258;52.516;13.318;2022-07-29T11:36:15;28.10;90.00
22185;DHT22;11258;52.516;13.318;2022-07-29T11:38:41;27.40;90.70
22185;DHT22;11258;52.516;13.318;2022-07-29T11:41:19;27.20;91.00
22185;DHT22;11258;52.516;13.318;2022-07-29T11:44:04;27.10;91.10
22185;DHT22;11258;52.516;13.318;2022-07-29T11:46:50;27.00;91.00
22185;DHT22;11258;52.516;13.318;2022-07-29T11:49:26;27.30;91.00
22185;DHT22;11258;52.516;13.318;2022-07-29T11:51:53;27.10;90.80
22185;DHT22;11258;52.516;13.318;2022-07-29T11:54:31;27.10;91.20
22185;DHT22;11258;52.516;13.318;2022-07-29T11:56:57;27.20;91.50
22185;DHT22;11258;52.516;13.318;2022-07-29T11:59:24;27.50;91.60
22185;DHT22;11258;52.516;13.318;2022-07-29T12:01:58;27.70;91.40
22185;DHT22;11258;52.516;13.318;2022-07-29T12:04:24;27.70;91.50
22185;DHT22;11258;52.516;13.318;2022-07-29T12:06:50;27.40;91.80
22185;DHT22;11258;52.516;13.318;2022-07-29T12:09:17;27.20;91.90
22185;DHT22;11258;52.516;13.318;2022-07-29T12:11:43;27.10;92.20
22185;DHT22;11258;52.516;13.318;2022-07-29T12:14:09;27.20;92.20
22185;DHT22;11258;52.516;13.318;2022-07-29T12:16:37;27.20;92.60
22185;DHT22;11258;52.516;13.318;2022-07-29T12:19:04;27.30;93.00
22185;DHT22;11258;52.516;13.318;2022-07-29T12:21:50;27.50;92.90
22185;DHT22;11258;52.516;13.318;2022-07-29T12:24:18;27.40;92.90
22185;DHT22;11258;52.516;13.318;2022-07-29T12:26:57;27.10;93.30
22185;DHT22;11258;52.516;13.318;2022-07-29T12:29:24;27.10;93.90
22185;DHT22;11258;52.516;13.318;2022-07-29T12:31:53;27.30;93.80
22185;DHT22;11258;52.516;13.318;2022-07-29T12:34:22;27.10;94.00
22185;DHT22;11258;52.516;13.318;2022-07-29T12:36:48;27.20;94.00
22185;DHT22;11258;52.516;13.318;2022-07-29T12:39:16;27.00;94.40
22185;DHT22;11258;52.516;13.318;2022-07-29T12:41:42;27.10;94.30
22185;DHT22;11258;52.516;13.318;2022-07-29T12:44:08;27.20;94.70
22185;DHT22;11258;52.516;13.318;2022-07-29T12:46:34;27.20;94.60
22185;DHT22;11258;52.516;13.318;2022-07-29T12:49:00;27.20;94.30
22185;DHT22;11258;52.516;13.318;2022-07-29T12:54:13;27.40;94.60
22185;DHT22;11258;52.516;13.318;2022-07-29T12:56:41;27.00;94.10
22185;DHT22;11258;52.516;13.318;2022-07-29T12:59:18;27.20;94.20
22185;DHT22;11258;52.516;13.318;2022-07-29T13:01:45;27.40;94.20
22185;DHT22;11258;52.516;13.318;2022-07-29T13:04:27;27.60;94.30
22185;DHT22;11258;52.516;13.318;2022-07-29T13:09:42;27.50;94.20
22185;DHT22;11258;52.516;13.318;2022-07-29T13:12:10;27.50;94.10
22185;DHT22;11258;52.516;13.318;2022-07-29T13:14:41;27.20;94.50
22185;DHT22;11258;52.516;13.318;2022-07-29T13:17:15;27.10;94.60
22185;DHT22;11258;52.516;13.318;2022-07-29T13:19:48;27.30;94.60
22185;DHT22;11258;52.516;13.318;2022-07-29T13:22:18;27.50;94.40
22185;DHT22;11258;52.516;13.318;2022-07-29T13:24:57;27.60;94.20
22185;DHT22;11258;52.516;13.318;2022-07-29T13:27:25;27.70;94.40
22185;DHT22;11258;52.516;13.318;2022-07-29T13:29:51;27.70;94.50
22185;DHT22;11258;52.516;13.318;2022-07-29T13:32:19;27.60;94.40
22185;DHT22;11258;52.516;13.318;2022-07-29T13:34:44;27.40;94.60
22185;DHT22;11258;52.516;13.318;2022-07-29T13:37:10;27.40;94.70
22185;DHT22;11258;52.516;13.318;2022-07-29T13:39:35;27.60;94.40
22185;DHT22;11258;52.516;13.318;2022-07-29T13:42:03;27.50;94.40
22185;DHT22;11258;52.516;13.318;2022-07-29T13:44:29;27.60;94.30
22185;DHT22;11258;52.516;13.318;2022-07-29T13:46:54;27.70;94.10
22185;DHT22;11258;52.516;13.318;2022-07-29T13:49:21;27.70;94.40
22185;DHT22;11258;52.516;13.318;2022-07-29T13:51:46;28.00;94.60
22185;DHT22;11258;52.516;13.318;2022-07-29T13:54:12;27.80;94.60
22185;DHT22;11258;52.516;13.318;2022-07-29T13:56:38;27.60;94.70
22185;DHT22;11258;52.516;13.318;2022-07-29T13:59:03;27.50;95.00
22185;DHT22;11258;52.516;13.318;2022-07-29T14:01:29;27.50;94.70
22185;DHT22;11258;52.516;13.318;2022-07-29T14:03:55;27.40;95.00
22185;DHT22;11258;52.516;13.318;2022-07-29T14:06:21;27.40;94.70
22185;DHT22;11258;52.516;13.318;2022-07-29T14:08:47;27.50;94.70
22185;DHT22;11258;52.516;13.318;2022-07-29T14:11:12;27.50;94.70
22185;DHT22;11258;52.516;13.318;2022-07-29T14:13:39;27.60;94.80
22185;DHT22;11258;52.516;13.318;2022-07-29T14:16:04;27.60;94.20
22185;DHT22;11258;52.516;13.318;2022-07-29T14:18:30;27.70;94.20
22185;DHT22;11258;52.516;13.318;2022-07-29T14:20:56;27.70;94.30
22185;DHT22;11258;52.516;13.318;2022-07-29T14:23:22;27.70;94.20
22185;DHT22;11258;52.516;13.318;2022-07-29T14:25:47;27.80;94.40
22185;DHT22;11258;52.516;13.318;2022-07-29T14:28:13;27.70;94.20
22185;DHT22;11258;52.516;13.318;2022-07-29T14:30:39;27.70;94.50
22185;DHT22;11258;52.516;13.318;2022-07-29T14:33:05;27.80;94.30
22185;DHT22;11258;52.516;13.318;2022-07-29T14:35:30;28.00;94.40
22185;DHT22;11258;52.516;13.318;2022-07-29T14:37:56;28.00;93.70
22185;DHT22;11258;52.516;13.318;2022-07-29T14:40:22;27.90;93.90
22185;DHT22;11258;52.516;13.318;2022-07-29T14:42:48;27.80;93.90
22185;DHT22;11258;52.516;13.318;2022-07-29T14:45:14;27.50;94.10
22185;DHT22;11258;52.516;13.318;2022-07-29T14:47:40;27.70;94.20
22185;DHT22;11258;52.516;13.318;2022-07-29T14:50:06;27.80;94.40
22185;DHT22;11258;52.516;13.318;2022-07-29T14:52:32;28.00;94.20
22185;DHT22;11258;52.516;13.318;2022-07-29T14:54:58;28.00;93.90
22185;DHT22;11258;52.516;13.318;2022-07-29T14:57:23;27.90;93.90
22185;DHT22;11258;52.516;13.318;2022-07-29T14:59:50;27.80;93.80
22185;DHT22;11258;52.516;13.318;2022-07-29T15:02:16;27.80;94.40
22185;DHT22;11258;52.516;13.318;2022-07-29T15:04:41;27.90;94.30
22185;DHT22;11258;52.516;13.318;2022-07-29T15:07:07;27.70;94.40
22185;DHT22;11258;52.516;13.318;2022-07-29T15:09:33;27.70;94.50
22185;DHT22;11258;52.516;13.318;2022-07-29T15:11:59;27.70;94.30
22185;DHT22;11258;52.516;13.318;2022-07-29T15:14:24;27.80;94.10
22185;DHT22;11258;52.516;13.318;2022-07-29T15:16:50;27.80;94.10
22185;DHT22;11258;52.516;13.318;2022-07-29T15:19:15;27.80;93.40
22185;DHT22;11258;52.516;13.318;2022-07-29T15:21:41;27.80;93.60
22185;DHT22;11258;52.516;13.318;2022-07-29T15:24:07;27.60;93.30
22185;DHT22;11258;52.516;13.318;2022-07-29T15:26:33;27.70;93.40
22185;DHT22;11258;52.516;13.318;2022-07-29T15:28:59;27.70;93.50
22185;DHT22;11258;52.516;13.318;2022-07-29T15:31:25;27.70;93.50
22185;DHT22;11258;52.516;13.318;2022-07-29T15:33:50;27.70;93.40
22185;DHT22;11258;52.516;13.318;2022-07-29T15:36:16;27.60;93.50
22185;DHT22;11258;52.516;13.318;2022-07-29T15:38:41;27.70;93.50
22185;DHT22;11258;52.516;13.318;2022-07-29T15:41:07;27.70;93.50
22185;DHT22;11258;52.516;13.318;2022-07-29T15:43:33;27.80;93.50
22185;DHT22;11258;52.516;13.318;2022-07-29T15:46:00;27.80;93.20
22185;DHT22;11258;52.516;13.318;2022-07-29T15:48:45;27.90;93.30
22185;DHT22;11258;52.516;13.318;2022-07-29T15:51:11;27.90;93.10
22185;DHT22;11258;52.516;13.318;2022-07-29T15:53:36;27.80;93.40
22185;DHT22;11258;52.516;13.318;2022-07-29T15:56:02;27.80;93.10
22185;DHT22;11258;52.516;13.318;2022-07-29T15:58:29;27.70;93.40
22185;DHT22;11258;52.516;13.318;2022-07-29T16:00:54;27.60;93.10